Meteo Giornale » Osservazioni meteo Russia » Mirny
ore: 22:00 - Osservazioni Meteo Mirny
Lat. 62° 31' N Lon. 114° 1' E Alt. 347 metri s.l.m.
21 °C
Sereno
Temp. 24 Ore
12 °C
27 °C
Sud/Sud-Est
10.8 Km/h
Dew point 4 °C
Umidità 32 %
Visibilità 10 Km
Il sole sorge alle ore 06:11
Il sole tramonta alle ore 20:36
| Data e Ora | Cielo e Fenomeni | T °C | DP °C | Um. % | Pres. hPa | Vis. km | Vento km/h | |
|---|---|---|---|---|---|---|---|---|
| Oggi h: 22:00 | Sereno | 21 | 4 | 32 | 1009 | 10 | S/SE 10.8 | |
| Oggi h: 21:00 | Sereno | 22 | 4 | 30 | 1009 | 10 | SE 14.4 | |
| Oggi h: 20:30 | Sereno | 23 | 5 | 31 | 1009 | 10 | S/SE 10.8 | |
| Oggi h: 20:00 | Sereno | 24 | 5 | 29 | 1009 | 10 | S/SE 10.8 | |
| Oggi h: 19:30 | Sereno | 25 | 5 | 27 | 1009 | 10 | S/SE 14.4 | |
| Oggi h: 19:20 | Sereno | 26 | 5 | 25 | 1009 | 10 | S/SE 14.4 | |
| Oggi h: 19:00 | Sereno | 26 | 4 | 24 | 1009 | 10 | S 10.8 | |
| Oggi h: 18:30 | Sereno | 26 | 4 | 24 | 1009 | 10 | S 10.8 | |
| Oggi h: 18:00 | Sereno | 27 | 4 | 22 | 1009 | 10 | S 10.8 | |
| Oggi h: 17:30 | Sereno | 27 | 4 | 22 | 1009 | 10 | S 10.8 | |
| Oggi h: 17:00 | Sereno | 27 | 4 | 22 | 1009 | 10 | S 10.8 | |
| Oggi h: 16:35 | Sereno | 27 | 4 | 22 | 1009 | 10 | S 10.8 | |
| Oggi h: 16:30 | Sereno | 27 | 4 | 22 | 1009 | 10 | S 21.6 | |
| Oggi h: 16:00 | Sereno | 27 | 4 | 22 | 1009 | 10 | S/SE 18 | |
| Oggi h: 15:30 | Sereno | 26 | 4 | 24 | 1010 | 10 | S 18 | |
| Oggi h: 15:00 | Sereno | 27 | 4 | 22 | 1010 | 10 | S 21.6 | |
| Oggi h: 14:30 | Sereno | 27 | 5 | 24 | 1010 | 10 | S 18 | |
| Oggi h: 14:00 | Sereno | 26 | 7 | 29 | 1010 | 10 | S/SE 18 | |
| Oggi h: 13:30 | Sereno | 25 | 7 | 31 | 1010 | 10 | S/SE 14.4 | |
| Oggi h: 13:00 | Sereno | 24 | 8 | 35 | 1010 | 10 | SE 10.8 | |
| Oggi h: 12:30 | Sereno | 23 | 8 | 38 | 1011 | 10 | E/SE 10.8 | |
| Oggi h: 12:00 | Sereno | 23 | 9 | 40 | 1011 | 10 | E/SE 14.4 | |
| Oggi h: 11:30 | Sereno | 22 | 9 | 43 | 1011 | 10 | E/SE 10.8 | |
| Oggi h: 11:00 | Sereno | 20 | 9 | 49 | 1011 | 10 | N 3.6 | |
| Oggi h: 10:30 | Sereno | 18 | 8 | 51 | 1012 | 10 | N 3.6 | |
| Oggi h: 10:00 | Sereno | 17 | 8 | 55 | 1012 | 10 | S 10.8 | |
| Oggi h: 09:30 | Sereno | 16 | 8 | 58 | 1012 | 10 | N 7.2 | |
| Oggi h: 09:00 | Sereno | 16 | 7 | 55 | 1012 | 10 | N 3.6 | |
| Oggi h: 08:30 | Sereno | 15 | 7 | 58 | 1012 | 10 | N 3.6 | |
| Oggi h: 08:00 | Sereno | 13 | 7 | 66 | 1012 | 10 | N 3.6 | |
| Oggi h: 07:30 | Sereno | 12 | 7 | 71 | 1012 | 10 | N 3.6 | |
| Oggi h: 07:00 | Sereno | 12 | 7 | 71 | 1012 | 10 | N 3.6 | |
| Oggi h: 06:30 | Sereno | 12 | 7 | 71 | 1012 | 10 | N 3.6 | |
| Oggi h: 06:00 | Sereno | 12 | 7 | 71 | 1012 | 10 | N 3.6 | |
| Oggi h: 05:00 | Sereno | 13 | 7 | 66 | 1012 | 10 | N 3.6 | |
| Oggi h: 04:00 | Sereno | 12 | 7 | 71 | 1012 | 10 | N 7.2 | |
| Oggi h: 03:00 | Sereno | 13 | 7 | 66 | 1012 | 10 | N 7.2 | |
| Oggi h: 02:00 | Sereno | 14 | 7 | 62 | 1013 | 10 | N 3.6 | |
| Oggi h: 01:00 | Sereno | 17 | 6 | 48 | 1013 | 10 | N 3.6 | |
| Oggi h: 00:00 | Sereno | 17 | 6 | 48 | 1013 | 10 | N 3.6 | |
| Ieri h: 23:00 | Sereno | 19 | 6 | 42 | 1013 | 10 | N 3.6 | |



